sensor_id;sensor_type;location;lat;lon;timestamp;pressure;altitude;pressure_sealevel;temperature;humidity
28008;BME280;15333;50.010;20.020;2023-04-04T00:01:12;99389.81;;;0.13;75.47
28008;BME280;15333;50.010;20.020;2023-04-04T00:04:13;99395.16;;;0.09;76.62
28008;BME280;15333;50.010;20.020;2023-04-04T00:07:13;99396.91;;;0.10;76.14
28008;BME280;15333;50.010;20.020;2023-04-04T00:10:15;99382.84;;;0.11;75.50
28008;BME280;15333;50.010;20.020;2023-04-04T00:13:16;99394.38;;;0.07;76.80
28008;BME280;15333;50.010;20.020;2023-04-04T00:16:17;99392.63;;;0.06;76.70
28008;BME280;15333;50.010;20.020;2023-04-04T00:19:18;99404.06;;;0.03;76.63
28008;BME280;15333;50.010;20.020;2023-04-04T00:22:19;99391.91;;;-0.01;76.85
28008;BME280;15333;50.010;20.020;2023-04-04T00:25:20;99407.75;;;-0.04;78.21
28008;BME280;15333;50.010;20.020;2023-04-04T00:28:21;99407.81;;;-0.07;78.74
28008;BME280;15333;50.010;20.020;2023-04-04T00:31:22;99400.91;;;-0.11;79.11
28008;BME280;15333;50.010;20.020;2023-04-04T00:34:23;99403.59;;;-0.14;77.77
28008;BME280;15333;50.010;20.020;2023-04-04T00:37:24;99401.09;;;-0.20;79.13
28008;BME280;15333;50.010;20.020;2023-04-04T00:40:25;99404.72;;;-0.24;79.59
28008;BME280;15333;50.010;20.020;2023-04-04T00:43:26;99406.44;;;-0.23;79.62
28008;BME280;15333;50.010;20.020;2023-04-04T00:46:27;99402.09;;;-0.26;79.39
28008;BME280;15333;50.010;20.020;2023-04-04T00:49:28;99408.28;;;-0.28;79.25
28008;BME280;15333;50.010;20.020;2023-04-04T00:52:30;99410.28;;;-0.38;81.11
28008;BME280;15333;50.010;20.020;2023-04-04T00:55:30;99410.34;;;-0.43;80.06
28008;BME280;15333;50.010;20.020;2023-04-04T00:58:32;99407.06;;;-0.51;81.70
28008;BME280;15333;50.010;20.020;2023-04-04T01:01:33;99414.88;;;-0.49;80.80
28008;BME280;15333;50.010;20.020;2023-04-04T01:04:35;99401.78;;;-0.51;81.11
28008;BME280;15333;50.010;20.020;2023-04-04T01:07:36;99409.72;;;-0.54;82.64
28008;BME280;15333;50.010;20.020;2023-04-04T01:10:38;99408.09;;;-0.59;82.28
28008;BME280;15333;50.010;20.020;2023-04-04T01:13:39;99419.41;;;-0.56;82.45
28008;BME280;15333;50.010;20.020;2023-04-04T01:16:45;99409.09;;;-0.65;83.79
28008;BME280;15333;50.010;20.020;2023-04-04T01:22:54;99418.00;;;-0.72;84.32
28008;BME280;15333;50.010;20.020;2023-04-04T01:26:03;99423.19;;;-0.69;84.41
28008;BME280;15333;50.010;20.020;2023-04-04T01:29:05;99418.81;;;-0.70;85.58
28008;BME280;15333;50.010;20.020;2023-04-04T01:32:18;99428.38;;;-0.66;84.42
28008;BME280;15333;50.010;20.020;2023-04-04T01:35:36;99429.34;;;-0.70;84.63
28008;BME280;15333;50.010;20.020;2023-04-04T01:41:47;99428.31;;;-0.63;83.97
28008;BME280;15333;50.010;20.020;2023-04-04T01:44:55;99425.59;;;-0.58;84.44
28008;BME280;15333;50.010;20.020;2023-04-04T01:47:59;99418.66;;;-0.62;83.06
28008;BME280;15333;50.010;20.020;2023-04-04T01:50:59;99422.13;;;-0.60;82.85
28008;BME280;15333;50.010;20.020;2023-04-04T01:54:03;99419.53;;;-0.62;83.96
28008;BME280;15333;50.010;20.020;2023-04-04T01:57:03;99413.28;;;-0.56;83.42
28008;BME280;15333;50.010;20.020;2023-04-04T02:00:05;99419.41;;;-0.56;82.75
28008;BME280;15333;50.010;20.020;2023-04-04T02:03:16;99414.00;;;-0.50;82.37
28008;BME280;15333;50.010;20.020;2023-04-04T02:06:17;99410.72;;;-0.58;82.62
28008;BME280;15333;50.010;20.020;2023-04-04T02:09:18;99415.97;;;-0.58;82.80
28008;BME280;15333;50.010;20.020;2023-04-04T02:12:20;99411.50;;;-0.56;82.24
28008;BME280;15333;50.010;20.020;2023-04-04T02:15:22;99414.22;;;-0.59;82.57
28008;BME280;15333;50.010;20.020;2023-04-04T02:18:23;99417.75;;;-0.60;84.03
28008;BME280;15333;50.010;20.020;2023-04-04T02:21:25;99421.25;;;-0.59;83.17
28008;BME280;15333;50.010;20.020;2023-04-04T02:24:27;99423.00;;;-0.60;82.82
28008;BME280;15333;50.010;20.020;2023-04-04T02:27:27;99417.75;;;-0.60;82.93
28008;BME280;15333;50.010;20.020;2023-04-04T02:30:28;99424.75;;;-0.59;83.07
28008;BME280;15333;50.010;20.020;2023-04-04T02:33:30;99417.66;;;-0.57;84.22
28008;BME280;15333;50.010;20.020;2023-04-04T02:36:34;99417.75;;;-0.60;84.13
28008;BME280;15333;50.010;20.020;2023-04-04T02:39:35;99421.28;;;-0.61;84.56
28008;BME280;15333;50.010;20.020;2023-04-04T02:42:36;99428.31;;;-0.63;84.17
28008;BME280;15333;50.010;20.020;2023-04-04T02:45:37;99419.63;;;-0.65;85.06
28008;BME280;15333;50.010;20.020;2023-04-04T02:48:56;99419.66;;;-0.68;87.20
28008;BME280;15333;50.010;20.020;2023-04-04T02:51:57;99418.75;;;-0.65;87.15
28008;BME280;15333;50.010;20.020;2023-04-04T02:55:04;99419.66;;;-0.68;87.36
28008;BME280;15333;50.010;20.020;2023-04-04T02:58:09;99421.44;;;-0.70;86.79
28008;BME280;15333;50.010;20.020;2023-04-04T03:01:11;99414.47;;;-0.71;86.73
28008;BME280;15333;50.010;20.020;2023-04-04T03:04:12;99410.94;;;-0.70;87.28
28008;BME280;15333;50.010;20.020;2023-04-04T03:07:14;99418.81;;;-0.70;88.12
28008;BME280;15333;50.010;20.020;2023-04-04T03:10:15;99419.78;;;-0.72;87.87
28008;BME280;15333;50.010;20.020;2023-04-04T03:13:16;99412.81;;;-0.75;88.04
28008;BME280;15333;50.010;20.020;2023-04-04T03:16:17;99409.19;;;-0.71;88.15
28008;BME280;15333;50.010;20.020;2023-04-04T03:19:23;99404.03;;;-0.74;88.39
28008;BME280;15333;50.010;20.020;2023-04-04T03:22:26;99409.28;;;-0.74;88.48
28008;BME280;15333;50.010;20.020;2023-04-04T03:25:27;99409.28;;;-0.74;88.73
28008;BME280;15333;50.010;20.020;2023-04-04T03:28:28;99403.91;;;-0.68;87.81
28008;BME280;15333;50.010;20.020;2023-04-04T03:31:30;99400.44;;;-0.70;87.17
28008;BME280;15333;50.010;20.020;2023-04-04T03:34:31;99396.91;;;-0.69;87.48
28008;BME280;15333;50.010;20.020;2023-04-04T03:37:32;99393.38;;;-0.68;87.51
28008;BME280;15333;50.010;20.020;2023-04-04T03:40:33;99396.84;;;-0.66;88.05
28008;BME280;15333;50.010;20.020;2023-04-04T03:43:38;99392.50;;;-0.67;87.44
28008;BME280;15333;50.010;20.020;2023-04-04T03:46:39;99389.88;;;-0.67;88.35
28008;BME280;15333;50.010;20.020;2023-04-04T03:49:41;99388.97;;;-0.66;88.24
28008;BME280;15333;50.010;20.020;2023-04-04T03:52:42;99379.28;;;-0.64;86.88
28008;BME280;15333;50.010;20.020;2023-04-04T03:55:43;99389.78;;;-0.64;87.63
28008;BME280;15333;50.010;20.020;2023-04-04T03:58:44;99381.91;;;-0.64;86.78
28008;BME280;15333;50.010;20.020;2023-04-04T04:01:51;99379.28;;;-0.64;87.77
28008;BME280;15333;50.010;20.020;2023-04-04T04:04:52;99377.56;;;-0.65;86.56
28008;BME280;15333;50.010;20.020;2023-04-04T04:07:53;99374.94;;;-0.65;86.68
28008;BME280;15333;50.010;20.020;2023-04-04T04:10:54;99367.00;;;-0.63;86.40
28008;BME280;15333;50.010;20.020;2023-04-04T04:13:55;99365.31;;;-0.66;87.03
28008;BME280;15333;50.010;20.020;2023-04-04T04:16:56;99376.72;;;-0.67;88.04
28008;BME280;15333;50.010;20.020;2023-04-04T04:19:57;99379.34;;;-0.67;87.74
28008;BME280;15333;50.010;20.020;2023-04-04T04:23:00;99378.47;;;-0.67;87.41
28008;BME280;15333;50.010;20.020;2023-04-04T04:26:01;99376.72;;;-0.67;88.36
28008;BME280;15333;50.010;20.020;2023-04-04T04:29:02;99376.63;;;-0.64;87.12
28008;BME280;15333;50.010;20.020;2023-04-04T04:32:06;99383.72;;;-0.66;89.05
28008;BME280;15333;50.010;20.020;2023-04-04T04:35:12;99378.50;;;-0.69;89.04
28008;BME280;15333;50.010;20.020;2023-04-04T04:38:16;99371.53;;;-0.70;88.42
28008;BME280;15333;50.010;20.020;2023-04-04T04:41:17;99380.28;;;-0.71;87.83
28008;BME280;15333;50.010;20.020;2023-04-04T04:44:22;99376.88;;;-0.74;87.80
28008;BME280;15333;50.010;20.020;2023-04-04T04:47:24;99389.03;;;-0.70;89.42
28008;BME280;15333;50.010;20.020;2023-04-04T04:50:26;99376.84;;;-0.73;89.66
28008;BME280;15333;50.010;20.020;2023-04-04T04:53:27;99382.91;;;-0.71;90.04
28008;BME280;15333;50.010;20.020;2023-04-04T04:56:28;99395.13;;;-0.67;90.61
28008;BME280;15333;50.010;20.020;2023-04-04T04:59:33;99391.72;;;-0.72;90.25
28008;BME280;15333;50.010;20.020;2023-04-04T05:02:35;99385.63;;;-0.74;90.65
28008;BME280;15333;50.010;20.020;2023-04-04T05:05:37;99384.03;;;-0.81;89.65
28008;BME280;15333;50.010;20.020;2023-04-04T05:08:42;99391.78;;;-0.75;90.24
28008;BME280;15333;50.010;20.020;2023-04-04T05:11:55;99394.94;;;-0.58;89.74
28008;BME280;15333;50.010;20.020;2023-04-04T05:15:01;99393.56;;;-0.77;89.56
28008;BME280;15333;50.010;20.020;2023-04-04T05:18:01;99397.03;;;-0.75;89.32
28008;BME280;15333;50.010;20.020;2023-04-04T05:21:03;99386.22;;;-0.60;89.17
28008;BME280;15333;50.010;20.020;2023-04-04T05:24:04;99387.16;;;-0.64;90.04
28008;BME280;15333;50.010;20.020;2023-04-04T05:27:07;99389.78;;;-0.64;89.09
28008;BME280;15333;50.010;20.020;2023-04-04T05:30:14;99391.50;;;-0.63;89.45
28008;BME280;15333;50.010;20.020;2023-04-04T05:33:25;99400.19;;;-0.58;89.93
28008;BME280;15333;50.010;20.020;2023-04-04T05:36:46;99395.84;;;-0.60;89.77
28008;BME280;15333;50.010;20.020;2023-04-04T05:39:47;99402.66;;;-0.50;89.11
28008;BME280;15333;50.010;20.020;2023-04-04T05:42:55;99410.72;;;-0.58;88.68
28008;BME280;15333;50.010;20.020;2023-04-04T05:45:58;99396.44;;;-0.48;89.02
28008;BME280;15333;50.010;20.020;2023-04-04T05:49:01;99396.63;;;-0.57;89.58
28008;BME280;15333;50.010;20.020;2023-04-04T05:52:03;99416.00;;;-0.61;89.70
28008;BME280;15333;50.010;20.020;2023-04-04T05:55:05;99414.28;;;-0.62;88.96
28008;BME280;15333;50.010;20.020;2023-04-04T05:58:07;99417.16;;;-0.74;90.18
28008;BME280;15333;50.010;20.020;2023-04-04T06:01:19;99412.63;;;-0.66;90.13
28008;BME280;15333;50.010;20.020;2023-04-04T06:04:22;99420.50;;;-0.66;88.11
28008;BME280;15333;50.010;20.020;2023-04-04T06:07:25;99420.50;;;-0.66;88.40
28008;BME280;15333;50.010;20.020;2023-04-04T06:10:26;99424.75;;;-0.59;88.14
28008;BME280;15333;50.010;20.020;2023-04-04T06:13:29;99425.53;;;-0.55;88.93
28008;BME280;15333;50.010;20.020;2023-04-04T06:16:36;99422.41;;;-0.32;87.39
28008;BME280;15333;50.010;20.020;2023-04-04T06:19:37;99415.16;;;-0.21;88.19
28008;BME280;15333;50.010;20.020;2023-04-04T06:22:38;99421.06;;;-0.12;86.58
28008;BME280;15333;50.010;20.020;2023-04-04T06:25:40;99427.41;;;-0.20;86.67
28008;BME280;15333;50.010;20.020;2023-04-04T06:28:48;99415.09;;;-0.18;86.41
28008;BME280;15333;50.010;20.020;2023-04-04T06:31:51;99424.06;;;-0.28;85.90
28008;BME280;15333;50.010;20.020;2023-04-04T06:34:57;99438.06;;;-0.26;86.90
28008;BME280;15333;50.010;20.020;2023-04-04T06:38:12;99429.53;;;0.03;85.92
28008;BME280;15333;50.010;20.020;2023-04-04T06:41:13;99432.59;;;-0.17;87.34
28008;BME280;15333;50.010;20.020;2023-04-04T06:44:14;99425.22;;;0.00;85.71
28008;BME280;15333;50.010;20.020;2023-04-04T06:47:16;99421.09;;;-0.13;86.06
28008;BME280;15333;50.010;20.020;2023-04-04T06:50:16;99422.38;;;0.45;83.66
28008;BME280;15333;50.010;20.020;2023-04-04T06:53:20;99403.91;;;0.46;82.87
28008;BME280;15333;50.010;20.020;2023-04-04T06:56:23;99409.56;;;0.65;83.58
28008;BME280;15333;50.010;20.020;2023-04-04T06:59:24;99402.28;;;0.74;82.12
28008;BME280;15333;50.010;20.020;2023-04-04T07:02:25;99403.25;;;0.36;81.84
28008;BME280;15333;50.010;20.020;2023-04-04T07:05:26;99416.38;;;0.01;83.25
28008;BME280;15333;50.010;20.020;2023-04-04T07:08:28;99422.59;;;-0.02;85.32
28008;BME280;15333;50.010;20.020;2023-04-04T07:11:30;99412.81;;;0.05;84.91
28008;BME280;15333;50.010;20.020;2023-04-04T07:14:31;99421.59;;;0.41;83.54
28008;BME280;15333;50.010;20.020;2023-04-04T07:17:36;99417.03;;;0.48;82.99
28008;BME280;15333;50.010;20.020;2023-04-04T07:20:37;99418.81;;;0.10;83.68
28008;BME280;15333;50.010;20.020;2023-04-04T07:23:38;99407.53;;;0.05;83.13
28008;BME280;15333;50.010;20.020;2023-04-04T07:26:39;99420.75;;;0.02;83.84
28008;BME280;15333;50.010;20.020;2023-04-04T07:29:40;99417.41;;;0.32;82.50
28008;BME280;15333;50.010;20.020;2023-04-04T07:32:41;99419.28;;;0.27;82.76
28008;BME280;15333;50.010;20.020;2023-04-04T07:35:42;99413.00;;;0.33;82.71
28008;BME280;15333;50.010;20.020;2023-04-04T07:38:43;99419.72;;;0.45;82.75
28008;BME280;15333;50.010;20.020;2023-04-04T07:41:44;99405.78;;;0.75;80.74
28008;BME280;15333;50.010;20.020;2023-04-04T07:44:45;99420.94;;;0.31;80.10
28008;BME280;15333;50.010;20.020;2023-04-04T07:47:46;99420.94;;;0.31;81.35
28008;BME280;15333;50.010;20.020;2023-04-04T07:50:47;99408.69;;;0.30;81.71
28008;BME280;15333;50.010;20.020;2023-04-04T07:53:48;99414.28;;;0.52;80.76
28008;BME280;15333;50.010;20.020;2023-04-04T07:56:50;99409.81;;;0.56;80.53
28008;BME280;15333;50.010;20.020;2023-04-04T07:59:51;99408.69;;;0.98;79.90
28008;BME280;15333;50.010;20.020;2023-04-04T08:02:52;99398.50;;;1.17;78.13
28008;BME280;15333;50.010;20.020;2023-04-04T08:05:54;99409.13;;;1.45;77.95
28008;BME280;15333;50.010;20.020;2023-04-04T08:08:55;99401.53;;;1.34;76.80
28008;BME280;15333;50.010;20.020;2023-04-04T08:11:56;99397.44;;;1.23;77.13
28008;BME280;15333;50.010;20.020;2023-04-04T08:14:57;99388.25;;;0.74;77.11
28008;BME280;15333;50.010;20.020;2023-04-04T08:17:58;99407.59;;;0.73;77.12
28008;BME280;15333;50.010;20.020;2023-04-04T08:20:58;99387.13;;;0.84;76.95
28008;BME280;15333;50.010;20.020;2023-04-04T08:23:59;99390.38;;;1.25;75.48
28008;BME280;15333;50.010;20.020;2023-04-04T08:27:00;99392.88;;;0.98;74.75
28008;BME280;15333;50.010;20.020;2023-04-04T08:30:01;99389.69;;;1.18;76.73
28008;BME280;15333;50.010;20.020;2023-04-04T08:33:03;99388.38;;;1.33;73.79
28008;BME280;15333;50.010;20.020;2023-04-04T08:36:04;99391.84;;;1.04;75.23
28008;BME280;15333;50.010;20.020;2023-04-04T08:39:05;99385.34;;;1.15;76.37
28008;BME280;15333;50.010;20.020;2023-04-04T08:42:07;99390.28;;;1.28;75.70
28008;BME280;15333;50.010;20.020;2023-04-04T08:45:10;99389.56;;;1.52;73.31
28008;BME280;15333;50.010;20.020;2023-04-04T08:48:13;99382.25;;;1.32;72.78
28008;BME280;15333;50.010;20.020;2023-04-04T08:51:16;99379.56;;;1.34;72.81
28008;BME280;15333;50.010;20.020;2023-04-04T08:54:19;99377.09;;;1.57;70.32
28008;BME280;15333;50.010;20.020;2023-04-04T08:57:21;99359.84;;;1.47;70.09
28008;BME280;15333;50.010;20.020;2023-04-04T09:00:22;99354.66;;;2.00;62.91
28008;BME280;15333;50.010;20.020;2023-04-04T09:03:25;99365.53;;;2.69;62.82
28008;BME280;15333;50.010;20.020;2023-04-04T09:06:27;99353.38;;;2.39;62.18
28008;BME280;15333;50.010;20.020;2023-04-04T09:09:29;99359.84;;;2.03;52.96
28008;BME280;15333;50.010;20.020;2023-04-04T09:12:34;99349.47;;;2.24;54.34
28008;BME280;15333;50.010;20.020;2023-04-04T09:15:37;99358.78;;;2.08;56.04
28008;BME280;15333;50.010;20.020;2023-04-04T09:18:41;99365.31;;;2.24;51.93
28008;BME280;15333;50.010;20.020;2023-04-04T09:21:45;99367.41;;;2.41;53.21
28008;BME280;15333;50.010;20.020;2023-04-04T09:24:47;99370.41;;;2.29;50.33
28008;BME280;15333;50.010;20.020;2023-04-04T09:27:51;99368.78;;;2.51;47.51
28008;BME280;15333;50.010;20.020;2023-04-04T09:30:53;99374.69;;;2.59;47.83
28008;BME280;15333;50.010;20.020;2023-04-04T09:33:54;99371.25;;;2.56;46.18
28008;BME280;15333;50.010;20.020;2023-04-04T09:36:58;99362.41;;;2.32;46.84
28008;BME280;15333;50.010;20.020;2023-04-04T09:39:59;99365.88;;;2.34;47.13
28008;BME280;15333;50.010;20.020;2023-04-04T09:43:02;99355.75;;;2.71;45.76
28008;BME280;15333;50.010;20.020;2023-04-04T09:46:04;99362.25;;;2.88;45.62
28008;BME280;15333;50.010;20.020;2023-04-04T09:49:10;99358.31;;;2.74;46.58
28008;BME280;15333;50.010;20.020;2023-04-04T09:52:20;99368.09;;;2.46;49.21
28008;BME280;15333;50.010;20.020;2023-04-04T09:55:30;99356.78;;;3.40;46.71
28008;BME280;15333;50.010;20.020;2023-04-04T09:58:31;99356.50;;;3.70;43.33
28008;BME280;15333;50.010;20.020;2023-04-04T10:01:36;99368.50;;;3.10;44.73
28008;BME280;15333;50.010;20.020;2023-04-04T10:04:37;99349.34;;;3.95;43.30
28008;BME280;15333;50.010;20.020;2023-04-04T10:07:39;99358.63;;;3.38;45.50
28008;BME280;15333;50.010;20.020;2023-04-04T10:11:26;99349.81;;;4.26;42.02
28008;BME280;15333;50.010;20.020;2023-04-04T10:14:37;99351.19;;;4.15;41.24
28008;BME280;15333;50.010;20.020;2023-04-04T10:17:39;99346.41;;;4.45;40.96
28008;BME280;15333;50.010;20.020;2023-04-04T10:20:42;99343.78;;;4.45;40.89
28008;BME280;15333;50.010;20.020;2023-04-04T10:23:46;99345.50;;;4.86;41.39
28008;BME280;15333;50.010;20.020;2023-04-04T10:26:48;99344.06;;;4.79;40.70
28008;BME280;15333;50.010;20.020;2023-04-04T10:29:49;99342.69;;;3.85;40.90
28008;BME280;15333;50.010;20.020;2023-04-04T10:33:07;99339.72;;;4.36;41.38
28008;BME280;15333;50.010;20.020;2023-04-04T10:36:13;99338.13;;;4.32;41.43
28008;BME280;15333;50.010;20.020;2023-04-04T10:39:28;99333.88;;;4.48;40.85
28008;BME280;15333;50.010;20.020;2023-04-04T10:42:37;99336.63;;;4.87;41.65
28008;BME280;15333;50.010;20.020;2023-04-04T10:45:39;99339.41;;;3.78;44.71
28008;BME280;15333;50.010;20.020;2023-04-04T10:48:42;99338.47;;;3.58;44.87
28008;BME280;15333;50.010;20.020;2023-04-04T10:51:44;99344.81;;;4.41;43.28
28008;BME280;15333;50.010;20.020;2023-04-04T10:54:45;99338.09;;;4.54;42.82
28008;BME280;15333;50.010;20.020;2023-04-04T10:57:49;99343.53;;;3.64;44.71
28008;BME280;15333;50.010;20.020;2023-04-04T11:00:54;99334.56;;;4.33;44.99
28008;BME280;15333;50.010;20.020;2023-04-04T11:04:15;99350.75;;;3.82;45.80
28008;BME280;15333;50.010;20.020;2023-04-04T11:07:16;99336.78;;;4.00;45.13
28008;BME280;15333;50.010;20.020;2023-04-04T11:10:25;99330.19;;;3.43;43.95
28008;BME280;15333;50.010;20.020;2023-04-04T11:13:31;99328.94;;;3.30;44.29
28008;BME280;15333;50.010;20.020;2023-04-04T11:16:45;99335.31;;;3.93;43.22
28008;BME280;15333;50.010;20.020;2023-04-04T11:19:58;99329.25;;;4.33;42.29
28008;BME280;15333;50.010;20.020;2023-04-04T11:29:48;99326.94;;;4.04;42.37
28008;BME280;15333;50.010;20.020;2023-04-04T11:32:50;99326.28;;;3.53;44.82
28008;BME280;15333;50.010;20.020;2023-04-04T11:35:51;99341.34;;;3.28;47.16
28008;BME280;15333;50.010;20.020;2023-04-04T11:38:56;99321.25;;;3.47;47.09
28008;BME280;15333;50.010;20.020;2023-04-04T11:42:10;99332.75;;;3.23;46.70
28008;BME280;15333;50.010;20.020;2023-04-04T11:45:24;99328.66;;;3.61;46.14
28008;BME280;15333;50.010;20.020;2023-04-04T11:48:26;99322.53;;;4.24;45.71
28008;BME280;15333;50.010;20.020;2023-04-04T11:51:28;99333.53;;;3.48;46.53
28008;BME280;15333;50.010;20.020;2023-04-04T11:54:30;99329.72;;;3.55;47.45
28008;BME280;15333;50.010;20.020;2023-04-04T11:57:31;99317.06;;;3.64;48.08
28008;BME280;15333;50.010;20.020;2023-04-04T12:00:34;99326.28;;;3.53;47.56
28008;BME280;15333;50.010;20.020;2023-04-04T12:03:37;99318.44;;;3.74;47.27
28008;BME280;15333;50.010;20.020;2023-04-04T12:06:39;99320.75;;;3.60;45.64
28008;BME280;15333;50.010;20.020;2023-04-04T12:09:41;99314.00;;;3.96;47.56
28008;BME280;15333;50.010;20.020;2023-04-04T12:12:44;99322.59;;;4.23;45.78
28008;BME280;15333;50.010;20.020;2023-04-04T12:15:46;99311.50;;;4.13;48.10
28008;BME280;15333;50.010;20.020;2023-04-04T12:18:48;99309.88;;;3.89;45.67
28008;BME280;15333;50.010;20.020;2023-04-04T12:21:50;99312.03;;;3.79;45.75
28008;BME280;15333;50.010;20.020;2023-04-04T12:24:52;99305.88;;;4.01;45.50
28008;BME280;15333;50.010;20.020;2023-04-04T12:27:53;99294.66;;;3.94;46.20
28008;BME280;15333;50.010;20.020;2023-04-04T12:30:54;99308.25;;;3.85;46.23
28008;BME280;15333;50.010;20.020;2023-04-04T12:33:56;99319.97;;;4.01;46.09
28008;BME280;15333;50.010;20.020;2023-04-04T12:36:57;99290.75;;;4.24;46.40
28008;BME280;15333;50.010;20.020;2023-04-04T12:40:00;99290.91;;;3.78;47.12
28008;BME280;15333;50.010;20.020;2023-04-04T12:43:08;99290.28;;;4.15;46.28
28008;BME280;15333;50.010;20.020;2023-04-04T12:46:09;99304.50;;;4.12;46.10
28008;BME280;15333;50.010;20.020;2023-04-04T12:49:12;99280.66;;;4.12;45.89
28008;BME280;15333;50.010;20.020;2023-04-04T12:52:18;99286.31;;;4.25;47.03
28008;BME280;15333;50.010;20.020;2023-04-04T12:55:21;99286.84;;;3.91;46.85
28008;BME280;15333;50.010;20.020;2023-04-04T12:58:25;99282.63;;;4.07;47.36
28008;BME280;15333;50.010;20.020;2023-04-04T13:01:26;99289.97;;;3.79;47.69
28008;BME280;15333;50.010;20.020;2023-04-04T13:04:27;99298.88;;;3.33;47.48
28008;BME280;15333;50.010;20.020;2023-04-04T13:07:36;99272.72;;;3.25;48.11
28008;BME280;15333;50.010;20.020;2023-04-04T13:11:03;99280.75;;;3.45;48.10
28008;BME280;15333;50.010;20.020;2023-04-04T13:14:05;99270.41;;;3.39;48.52
28008;BME280;15333;50.010;20.020;2023-04-04T13:17:06;99275.47;;;3.67;49.16
28008;BME280;15333;50.010;20.020;2023-04-04T13:20:10;99276.97;;;3.29;50.25
28008;BME280;15333;50.010;20.020;2023-04-04T13:23:12;99272.88;;;3.66;49.10
28008;BME280;15333;50.010;20.020;2023-04-04T13:26:13;99268.19;;;3.50;48.85
28008;BME280;15333;50.010;20.020;2023-04-04T13:29:14;99271.94;;;3.45;50.52
28008;BME280;15333;50.010;20.020;2023-04-04T13:32:15;99274.78;;;3.40;50.85
28008;BME280;15333;50.010;20.020;2023-04-04T13:35:16;99297.06;;;2.87;52.17
28008;BME280;15333;50.010;20.020;2023-04-04T13:38:17;99285.31;;;2.70;53.18
28008;BME280;15333;50.010;20.020;2023-04-04T13:41:18;99283.28;;;2.79;53.22
28008;BME280;15333;50.010;20.020;2023-04-04T13:44:19;99285.22;;;2.98;52.74
28008;BME280;15333;50.010;20.020;2023-04-04T13:47:20;99282.03;;;3.12;52.91
28008;BME280;15333;50.010;20.020;2023-04-04T13:50:22;99285.31;;;2.70;53.84
28008;BME280;15333;50.010;20.020;2023-04-04T13:53:23;99271.69;;;2.83;53.43
28008;BME280;15333;50.010;20.020;2023-04-04T13:56:24;99274.19;;;2.86;54.04
28008;BME280;15333;50.010;20.020;2023-04-04T13:59:25;99285.75;;;2.83;54.18
28008;BME280;15333;50.010;20.020;2023-04-04T14:02:26;99288.09;;;2.67;55.09
28008;BME280;15333;50.010;20.020;2023-04-04T14:05:27;99295.16;;;2.67;54.80
28008;BME280;15333;50.010;20.020;2023-04-04T14:08:28;99280.53;;;2.57;55.50
28008;BME280;15333;50.010;20.020;2023-04-04T14:11:29;99283.13;;;2.58;55.33
28008;BME280;15333;50.010;20.020;2023-04-04T14:14:31;99285.75;;;2.58;55.60
28008;BME280;15333;50.010;20.020;2023-04-04T14:17:32;99282.88;;;2.41;54.54
28008;BME280;15333;50.010;20.020;2023-04-04T14:20:33;99283.84;;;2.39;54.12
28008;BME280;15333;50.010;20.020;2023-04-04T14:23:34;99280.81;;;2.24;54.46
28008;BME280;15333;50.010;20.020;2023-04-04T14:26:35;99284.91;;;2.33;54.46
28008;BME280;15333;50.010;20.020;2023-04-04T14:29:37;99280.63;;;2.29;54.59
28008;BME280;15333;50.010;20.020;2023-04-04T14:32:38;99283.19;;;2.32;54.84
28008;BME280;15333;50.010;20.020;2023-04-04T14:35:38;99293.53;;;2.38;55.17
28008;BME280;15333;50.010;20.020;2023-04-04T14:38:40;99274.66;;;2.24;56.15
28008;BME280;15333;50.010;20.020;2023-04-04T14:41:40;99279.72;;;2.30;57.27
28008;BME280;15333;50.010;20.020;2023-04-04T14:44:41;99288.69;;;2.26;57.79
28008;BME280;15333;50.010;20.020;2023-04-04T14:47:42;99300.38;;;2.19;57.43
28008;BME280;15333;50.010;20.020;2023-04-04T14:50:43;99290.94;;;2.12;57.64
28008;BME280;15333;50.010;20.020;2023-04-04T14:53:45;99302.72;;;2.00;58.59
28008;BME280;15333;50.010;20.020;2023-04-04T14:56:46;99293.66;;;1.82;57.89
28008;BME280;15333;50.010;20.020;2023-04-04T14:59:47;99310.59;;;2.02;58.22
28008;BME280;15333;50.010;20.020;2023-04-04T15:02:49;99287.06;;;1.95;59.08
28008;BME280;15333;50.010;20.020;2023-04-04T15:05:50;99281.16;;;1.87;58.03
28008;BME280;15333;50.010;20.020;2023-04-04T15:08:51;99303.22;;;1.85;58.49
28008;BME280;15333;50.010;20.020;2023-04-04T15:11:51;99308.94;;;1.71;59.46
28008;BME280;15333;50.010;20.020;2023-04-04T15:14:53;99298.88;;;1.84;59.89
28008;BME280;15333;50.010;20.020;2023-04-04T15:17:53;99305.34;;;1.74;59.58
28008;BME280;15333;50.010;20.020;2023-04-04T15:20:56;99302.00;;;1.69;58.62
28008;BME280;15333;50.010;20.020;2023-04-04T15:23:58;99303.78;;;1.68;59.13
28008;BME280;15333;50.010;20.020;2023-04-04T15:26:59;99309.75;;;1.73;59.26
28008;BME280;15333;50.010;20.020;2023-04-04T15:30:00;99303.00;;;1.65;59.76
28008;BME280;15333;50.010;20.020;2023-04-04T15:33:02;99308.78;;;1.77;58.86
28008;BME280;15333;50.010;20.020;2023-04-04T15:36:02;99317.72;;;1.72;58.48
28008;BME280;15333;50.010;20.020;2023-04-04T15:39:04;99310.47;;;1.78;57.69
28008;BME280;15333;50.010;20.020;2023-04-04T15:42:04;99316.50;;;1.83;58.01
28008;BME280;15333;50.010;20.020;2023-04-04T15:45:06;99323.97;;;1.69;57.22
28008;BME280;15333;50.010;20.020;2023-04-04T15:48:07;99315.03;;;1.73;57.08
28008;BME280;15333;50.010;20.020;2023-04-04T15:51:08;99315.44;;;1.61;57.50
28008;BME280;15333;50.010;20.020;2023-04-04T15:54:10;99331.72;;;1.46;57.07
28008;BME280;15333;50.010;20.020;2023-04-04T15:57:11;99338.06;;;1.40;56.90
28008;BME280;15333;50.010;20.020;2023-04-04T16:00:12;99332.28;;;1.28;56.98
28008;BME280;15333;50.010;20.020;2023-04-04T16:03:13;99337.56;;;1.28;56.67
28008;BME280;15333;50.010;20.020;2023-04-04T16:06:14;99346.44;;;1.24;57.59
28008;BME280;15333;50.010;20.020;2023-04-04T16:09:15;99333.50;;;1.16;58.30
28008;BME280;15333;50.010;20.020;2023-04-04T16:12:16;99352.16;;;1.08;58.14
28008;BME280;15333;50.010;20.020;2023-04-04T16:15:18;99334.53;;;1.10;58.41